Time;durP1;ratioP1;P1;durP2;ratioP2;P2;SDS_P1;SDS_P2;PMS_P1;PMS_P2;Temp;Humidity;BMP_temperature;BMP_pressure;BME280_temperature;BME280_humidity;BME280_pressure;Samples;Min_cycle;Max_cycle;Signal;HPM_P1;HPM_P2
2022/07/02 00:00:11;;;;;;;7.50;3.78;;;;;;;21.38;55.02;101567.00;10492759;28;20412;-83
2022/07/02 00:05:20;;;;;;;4.97;3.83;;;;;;;21.33;55.43;101566.00;10479770;28;20049;-83
2022/07/02 00:10:24;;;;;;;6.93;4.85;;;;;;;21.28;55.25;101566.19;10474013;28;20037;-83
2022/07/02 00:15:33;;;;;;;6.82;4.32;;;;;;;21.31;55.88;101573.88;10488934;28;20044;-82
2022/07/02 00:20:38;;;;;;;5.93;3.95;;;;;;;21.30;55.92;101577.84;10490589;28;20048;-83
2022/07/02 00:25:54;;;;;;;5.18;3.80;;;;;;;21.27;55.74;101580.47;10491123;28;20045;-83
2022/07/02 00:30:56;;;;;;;5.65;4.03;;;;;;;21.25;56.09;101591.16;10491063;28;20384;-82
2022/07/02 00:35:58;;;;;;;8.13;3.70;;;;;;;21.28;55.61;101584.91;10489257;28;20076;-82
2022/07/02 00:41:02;;;;;;;6.13;3.97;;;;;;;21.30;56.13;101589.00;10448193;28;20055;-82
2022/07/02 00:46:05;;;;;;;7.20;4.25;;;;;;;21.29;56.04;101583.75;10472776;28;20079;-82
2022/07/02 00:51:07;;;;;;;7.80;3.90;;;;;;;21.26;56.12;101576.84;10471815;28;20036;-82
2022/07/02 00:56:09;;;;;;;7.40;4.88;;;;;;;21.25;56.84;101583.59;10489518;28;20503;-82
2022/07/02 01:01:13;;;;;;;5.38;3.97;;;;;;;21.24;56.40;101579.16;10489531;28;20053;-82
2022/07/02 01:06:16;;;;;;;6.25;4.15;;;;;;;21.27;56.55;101584.09;10488578;28;20771;-82
2022/07/02 01:11:19;;;;;;;5.20;3.80;;;;;;;21.29;56.46;101592.94;10470192;28;20041;-82
2022/07/02 01:16:22;;;;;;;3.63;2.85;;;;;;;21.35;56.56;101586.06;10489524;28;20060;-82
2022/07/02 01:21:24;;;;;;;7.20;3.95;;;;;;;21.42;55.75;101593.09;10472133;28;20045;-82
2022/07/02 01:26:26;;;;;;;4.57;3.90;;;;;;;21.48;55.91;101586.19;10488431;28;20060;-82
2022/07/02 01:31:29;;;;;;;6.95;4.10;;;;;;;21.51;55.57;101588.31;10488160;28;20047;-81
2022/07/02 01:36:32;;;;;;;4.82;3.45;;;;;;;21.51;55.51;101588.31;10450364;28;20152;-82
2022/07/02 01:41:41;;;;;;;6.47;3.90;;;;;;;21.50;55.40;101586.66;10485531;28;20044;-82
2022/07/02 01:46:44;;;;;;;6.55;5.05;;;;;;;21.51;55.94;101586.31;10465963;28;20507;-82
2022/07/02 01:51:46;;;;;;;6.65;4.25;;;;;;;21.52;55.68;101593.59;10458305;28;20053;-82
2022/07/02 01:56:49;;;;;;;7.35;4.55;;;;;;;21.52;55.54;101589.94;10484841;28;20033;-81
2022/07/02 02:01:51;;;;;;;6.40;4.38;;;;;;;21.61;55.13;101591.56;10487384;28;20060;-82
2022/07/02 02:06:53;;;;;;;5.93;3.92;;;;;;;21.80;54.76;101588.38;10487525;28;20041;-82
2022/07/02 02:11:55;;;;;;;7.70;4.25;;;;;;;22.10;54.51;101594.06;10444135;28;20045;-82
2022/07/02 02:16:59;;;;;;;4.72;3.55;;;;;;;22.35;53.85;101583.88;10439796;28;20518;-82
2022/07/02 02:22:01;;;;;;;5.03;3.15;;;;;;;22.54;53.19;101582.28;10486879;28;20057;-82
2022/07/02 02:27:04;;;;;;;7.95;4.38;;;;;;;22.77;52.48;101567.97;10479095;28;20033;-83
2022/07/02 02:32:07;;;;;;;8.48;4.55;;;;;;;22.96;52.69;101567.53;10485298;28;20048;-82
2022/07/02 02:37:09;;;;;;;6.50;3.70;;;;;;;23.17;51.97;101565.50;10485408;28;20514;-82
2022/07/02 02:42:12;;;;;;;5.60;4.32;;;;;;;23.31;51.57;101570.81;10485042;28;20072;-82
2022/07/02 02:47:14;;;;;;;5.55;4.15;;;;;;;23.44;51.41;101567.72;10485474;28;20044;-83
2022/07/02 02:52:16;;;;;;;5.38;4.00;;;;;;;23.61;50.93;101563.13;10485958;28;20393;-82
2022/07/02 02:57:18;;;;;;;6.03;3.95;;;;;;;23.91;50.75;101550.50;10486040;28;20048;-82
2022/07/02 03:02:20;;;;;;;5.55;4.03;;;;;;;24.14;49.78;101545.28;10486408;28;20061;-83
2022/07/02 03:07:23;;;;;;;5.60;3.80;;;;;;;24.38;49.45;101543.66;10480368;28;20044;-82
2022/07/02 03:12:25;;;;;;;4.97;3.40;;;;;;;24.51;48.56;101542.47;10478935;28;20057;-82
2022/07/02 03:17:28;;;;;;;4.40;3.28;;;;;;;24.67;48.97;101543.34;10493832;28;20049;-82
2022/07/02 03:22:30;;;;;;;7.40;3.90;;;;;;;24.81;48.67;101532.53;10493038;28;20060;-82
2022/07/02 03:27:33;;;;;;;6.55;4.13;;;;;;;25.18;47.29;101543.66;10491464;28;20075;-82
2022/07/02 03:32:35;;;;;;;5.28;4.38;;;;;;;25.45;47.56;101548.41;10485929;28;20068;-81
2022/07/02 03:37:37;;;;;;;5.05;3.70;;;;;;;25.80;47.29;101540.13;10492255;28;20032;-81
2022/07/02 03:42:40;;;;;;;4.15;3.50;;;;;;;25.94;46.07;101539.66;10463493;28;20049;-81
2022/07/02 03:47:42;;;;;;;6.80;3.60;;;;;;;26.15;46.46;101536.56;10454319;28;20126;-81
2022/07/02 03:52:44;;;;;;;5.30;3.35;;;;;;;26.39;44.92;101535.56;10491941;28;20045;-82
2022/07/02 03:57:46;;;;;;;5.10;3.35;;;;;;;26.51;45.61;101529.78;10491660;28;20048;-82
2022/07/02 04:02:48;;;;;;;5.55;3.97;;;;;;;26.81;44.92;101532.03;10491595;28;20063;-82
2022/07/02 04:07:51;;;;;;;4.45;3.90;;;;;;;27.04;45.00;101535.75;10492512;28;20535;-81
2022/07/02 04:12:53;;;;;;;6.18;4.18;;;;;;;27.11;44.09;101535.91;10458635;28;20045;-82
2022/07/02 04:17:55;;;;;;;7.38;4.22;;;;;;;27.30;43.51;101541.53;10449755;28;20037;-82
2022/07/02 04:22:58;;;;;;;5.60;3.60;;;;;;;27.59;43.26;101540.03;10486510;28;20040;-83
2022/07/02 04:28:00;;;;;;;5.05;3.60;;;;;;;27.78;43.54;101542.03;10490569;28;20052;-84
2022/07/02 04:33:02;;;;;;;9.73;3.38;;;;;;;28.11;42.41;101538.50;10490052;28;20045;-83
2022/07/02 04:38:05;;;;;;;3.60;3.22;;;;;;;28.35;41.55;101537.31;10453390;28;20041;-83
2022/07/02 04:43:07;;;;;;;5.05;3.83;;;;;;;28.56;41.28;101531.13;10486036;28;20040;-83
2022/07/02 04:48:09;;;;;;;7.53;3.95;;;;;;;28.55;41.24;101534.34;10489762;28;20048;-83
2022/07/02 04:53:11;;;;;;;6.97;4.72;;;;;;;29.01;40.88;101534.97;10488779;28;20041;-83
2022/07/02 04:58:13;;;;;;;5.78;3.20;;;;;;;29.08;40.91;101535.88;10472201;28;20048;-83
2022/07/02 05:03:16;;;;;;;6.00;3.92;;;;;;;29.64;39.71;101542.53;10488497;28;20049;-83
2022/07/02 05:08:26;;;;;;;5.28;3.40;;;;;;;30.10;38.68;101548.63;10489420;28;20072;-82
2022/07/02 05:13:28;;;;;;;4.18;3.75;;;;;;;30.31;38.62;101556.44;10487489;28;20060;-82
2022/07/02 05:18:30;;;;;;;5.93;3.60;;;;;;;30.36;38.00;101558.09;10475842;28;20052;-83
2022/07/02 05:23:32;;;;;;;5.93;3.65;;;;;;;30.78;37.72;101564.03;10485634;28;20055;-83
2022/07/02 05:28:35;;;;;;;4.82;3.72;;;;;;;30.97;36.49;101556.44;10485261;28;20052;-82
2022/07/02 05:33:37;;;;;;;5.38;4.10;;;;;;;31.24;35.99;101554.94;10485559;28;20060;-82
2022/07/02 05:38:39;;;;;;;4.75;3.55;;;;;;;31.54;35.22;101551.75;10487748;28;20051;-83
2022/07/02 05:43:41;;;;;;;4.90;3.92;;;;;;;31.67;35.33;101563.53;10487265;28;20057;-83
2022/07/02 05:48:43;;;;;;;5.38;4.00;;;;;;;31.60;34.05;101558.66;10487436;28;20049;-82
2022/07/02 05:53:46;;;;;;;7.65;3.92;;;;;;;31.58;34.89;101558.22;10487064;28;20549;-83
2022/07/02 05:58:48;;;;;;;6.97;4.00;;;;;;;31.97;34.11;101555.47;10487025;28;20053;-82
2022/07/02 06:03:50;;;;;;;6.03;3.33;;;;;;;32.43;33.20;101553.78;10486938;28;20047;-82
2022/07/02 06:08:52;;;;;;;3.05;2.75;;;;;;;32.65;32.16;101544.00;10486270;28;20082;-83
2022/07/02 06:13:54;;;;;;;4.05;3.17;;;;;;;32.60;32.13;101544.41;10456480;28;20049;-83
2022/07/02 06:18:57;;;;;;;5.68;3.53;;;;;;;32.88;31.87;101546.38;10445294;28;20526;-82
2022/07/02 06:23:59;;;;;;;4.90;3.47;;;;;;;32.82;31.19;101525.28;10448411;28;20045;-82
2022/07/02 06:29:01;;;;;;;3.72;3.38;;;;;;;33.02;30.89;101517.88;10486476;28;20060;-81
2022/07/02 06:34:04;;;;;;;5.85;3.00;;;;;;;33.41;30.43;101522.53;10484516;28;20049;-81
2022/07/02 06:39:06;;;;;;;5.13;3.22;;;;;;;33.78;29.38;101519.00;10483600;28;20049;-81
2022/07/02 06:44:08;;;;;;;6.35;3.42;;;;;;;33.88;28.72;101517.31;10483703;28;20052;-82
2022/07/02 06:49:11;;;;;;;3.20;2.45;;;;;;;33.95;27.64;101520.09;10470515;28;20419;-82
2022/07/02 06:54:18;;;;;;;2.90;2.40;;;;;;;33.98;27.36;101510.69;10491985;28;20057;-82
2022/07/02 06:59:21;;;;;;;3.22;2.50;;;;;;;34.00;26.97;101513.94;10492182;28;20053;-82
2022/07/02 07:04:23;;;;;;;2.53;2.30;;;;;;;33.79;27.06;101510.03;10492651;28;20511;-82
2022/07/02 07:09:29;;;;;;;2.88;2.47;;;;;;;33.88;27.27;101506.75;10493610;28;20048;-83
2022/07/02 07:14:32;;;;;;;;;;;;;;;33.84;27.41;101498.25;10485957;28;20053;-83
2022/07/02 07:19:34;;;;;;;2.60;2.40;;;;;;;33.58;27.69;101502.47;10441220;28;19920;-84
2022/07/02 07:24:36;;;;;;;3.53;2.80;;;;;;;33.35;28.25;101512.84;10451850;28;20041;-83
2022/07/02 07:29:39;;;;;;;3.42;3.00;;;;;;;33.78;27.86;101511.25;10460028;28;20049;-85
2022/07/02 07:34:41;;;;;;;2.50;2.30;;;;;;;34.04;27.51;101506.19;10485824;28;20423;-84
2022/07/02 07:39:43;;;;;;;5.75;3.00;;;;;;;34.04;27.41;101514.72;10491997;28;20049;-84
2022/07/02 07:44:49;;;;;;;3.53;3.05;;;;;;;33.43;28.01;101520.06;10488762;28;20045;-84
2022/07/02 07:49:51;;;;;;;7.15;2.80;;;;;;;33.57;27.46;101519.97;10489834;28;20052;-84
2022/07/02 07:54:58;;;;;;;3.95;3.05;;;;;;;33.83;27.06;101518.53;10489361;28;20423;-84
2022/07/02 08:00:01;;;;;;;3.85;2.70;;;;;;;33.51;27.25;101519.63;10471099;28;20045;-83
2022/07/02 08:05:04;;;;;;;3.42;2.78;;;;;;;33.80;27.50;101508.00;10489184;28;20515;-83
2022/07/02 08:10:08;;;;;;;5.65;3.30;;;;;;;33.65;27.41;101510.13;10487681;28;20561;-84
2022/07/02 08:15:10;;;;;;;4.15;3.05;;;;;;;33.42;27.60;101516.44;10458158;28;20053;-76
2022/07/02 08:20:13;;;;;;;3.97;3.58;;;;;;;32.88;28.51;101506.56;10487844;28;20060;-78
2022/07/02 08:25:16;;;;;;;3.38;2.67;;;;;;;32.53;28.71;101514.00;10487014;28;20053;-78
2022/07/02 08:30:18;;;;;;;3.83;2.85;;;;;;;32.45;28.32;101518.06;10487588;28;20499;-80
2022/07/02 08:35:21;;;;;;;3.58;2.88;;;;;;;32.14;28.60;101519.75;10487326;28;20550;-80
2022/07/02 08:40:24;;;;;;;4.55;3.13;;;;;;;32.10;28.81;101525.41;10333050;28;4432980;-77
2022/07/02 08:45:31;;;;;;;3.97;3.10;;;;;;;32.71;28.31;101528.13;10456200;28;20388;-80
2022/07/02 08:50:34;;;;;;;5.70;2.83;;;;;;;32.87;27.34;101522.00;10489153;28;20075;-77
2022/07/02 08:55:37;;;;;;;4.07;3.10;;;;;;;32.82;27.24;101519.59;10489802;28;20045;-74
2022/07/02 09:00:40;;;;;;;3.28;2.97;;;;;;;33.13;25.40;101518.59;10498393;28;20037;-82
2022/07/02 09:05:43;;;;;;;3.67;2.90;;;;;;;33.21;24.74;101505.97;10468628;28;20503;-82
2022/07/02 09:10:46;;;;;;;4.05;3.10;;;;;;;33.32;24.64;101513.63;10488681;28;20047;-83
2022/07/02 09:15:50;;;;;;;3.83;3.05;;;;;;;32.95;25.57;101498.81;10488845;28;20045;-86
2022/07/02 09:20:53;;;;;;;3.97;2.92;;;;;;;32.95;25.89;101492.31;10458178;28;20036;-85
2022/07/02 09:25:55;;;;;;;4.10;2.85;;;;;;;32.20;26.61;101484.03;10458624;28;20057;-86
2022/07/02 09:31:06;;;;;;;3.95;2.85;;;;;;;32.00;27.66;101480.00;10459239;28;20040;-82
2022/07/02 09:36:11;;;;;;;3.78;3.28;;;;;;;31.91;27.46;101480.41;10476299;28;20057;-79
2022/07/02 09:41:19;;;;;;;4.38;3.00;;;;;;;31.83;27.78;101475.97;10479429;28;20148;-85
2022/07/02 09:46:21;;;;;;;3.88;2.85;;;;;;;31.39;27.86;101468.63;10460599;28;20049;-88
2022/07/02 09:51:23;;;;;;;3.25;2.95;;;;;;;31.37;27.63;101462.56;10427948;28;20044;-83
2022/07/02 09:56:26;;;;;;;5.00;3.10;;;;;;;31.46;28.02;101463.00;10439705;28;20040;-82
2022/07/02 10:01:28;;;;;;;5.60;3.45;;;;;;;31.16;27.94;101460.50;10466934;28;20061;-82
2022/07/02 10:06:30;;;;;;;3.63;3.33;;;;;;;31.20;27.49;101449.19;10477683;28;20044;-82
2022/07/02 10:11:33;;;;;;;3.63;3.05;;;;;;;31.28;28.19;101447.19;10465002;28;20044;-86
2022/07/02 10:16:37;;;;;;;3.78;2.63;;;;;;;31.14;28.53;101443.06;10426838;28;20385;-80
2022/07/02 10:21:40;;;;;;;3.33;2.88;;;;;;;30.95;28.64;101445.47;10466361;28;20037;-81
2022/07/02 10:26:42;;;;;;;3.13;2.75;;;;;;;30.83;26.91;101447.47;10484849;28;20047;-79
2022/07/02 10:31:49;;;;;;;4.50;3.42;;;;;;;30.66;28.60;101441.72;10435947;28;20048;-82
2022/07/02 10:36:52;;;;;;;5.97;3.05;;;;;;;30.36;29.44;101427.81;10456059;28;20045;-83
2022/07/02 10:42:00;;;;;;;3.58;3.20;;;;;;;30.34;29.07;101416.91;10444833;28;20053;-83
2022/07/02 10:47:03;;;;;;;4.57;3.08;;;;;;;30.22;29.85;101409.56;10431825;28;20052;-83
2022/07/02 10:52:05;;;;;;;4.40;3.58;;;;;;;30.24;29.78;101423.34;10443187;28;20057;-84
2022/07/02 10:57:15;;;;;;;5.15;3.22;;;;;;;30.13;31.07;101408.31;10444192;28;20080;-84
2022/07/02 11:02:17;;;;;;;4.85;3.15;;;;;;;30.21;30.13;101416.44;10426616;28;20085;-84
2022/07/02 11:07:20;;;;;;;3.90;3.30;;;;;;;30.40;29.12;101406.00;10450830;28;20042;-84
2022/07/02 11:12:27;;;;;;;3.42;3.10;;;;;;;30.29;29.85;101395.44;10443891;28;20044;-84
2022/07/02 11:17:34;;;;;;;5.10;3.33;;;;;;;30.27;29.17;101397.88;10438397;28;20052;-83
2022/07/02 11:22:36;;;;;;;7.82;3.75;;;;;;;30.46;29.37;101393.88;10442492;28;20042;-83
2022/07/02 11:27:38;;;;;;;4.13;3.50;;;;;;;30.64;29.18;101390.34;10445173;28;20056;-83
2022/07/02 11:32:41;;;;;;;5.13;4.22;;;;;;;30.72;29.61;101377.78;10426483;28;20473;-83
2022/07/02 11:37:44;;;;;;;4.15;3.72;;;;;;;30.79;29.68;101372.97;10451481;28;20056;-83
2022/07/02 11:42:47;;;;;;;6.30;3.33;;;;;;;30.66;28.87;101371.72;10420606;28;20049;-83
2022/07/02 11:47:50;;;;;;;6.53;3.60;;;;;;;30.46;29.43;101361.91;10433572;28;20049;-83
2022/07/02 11:52:52;;;;;;;4.18;3.55;;;;;;;30.44;30.18;101353.03;10433180;28;20037;-83
2022/07/02 11:57:55;;;;;;;4.20;3.63;;;;;;;30.33;29.48;101349.34;10436533;28;20056;-83
2022/07/02 12:02:57;;;;;;;4.85;4.00;;;;;;;30.33;29.15;101346.50;10453023;28;20033;-83
2022/07/02 12:07:59;;;;;;;4.72;4.10;;;;;;;30.45;29.23;101348.97;10449652;28;20120;-83
2022/07/02 12:13:10;;;;;;;5.47;3.58;;;;;;;30.24;29.01;101339.22;10450263;28;20492;-83
2022/07/02 12:18:20;;;;;;;5.38;3.60;;;;;;;30.16;29.81;101334.72;10438060;28;20064;-83
2022/07/02 12:23:22;;;;;;;6.97;4.10;;;;;;;30.32;29.67;101331.53;10449426;28;20042;-83
2022/07/02 12:33:54;;;;;;;4.55;3.60;;;;;;;30.48;28.43;101319.84;10448446;28;20064;-84
2022/07/02 12:38:56;;;;;;;5.35;4.13;;;;;;;30.54;28.95;101324.69;10452120;28;20056;-84
2022/07/02 12:43:58;;;;;;;5.30;4.07;;;;;;;30.58;28.72;101321.91;10446776;28;20041;-84
2022/07/02 12:49:02;;;;;;;4.13;3.58;;;;;;;30.46;29.71;101316.59;10429970;28;20061;-84
2022/07/02 12:54:04;;;;;;;5.72;3.47;;;;;;;30.56;29.89;101321.50;10448002;28;20550;-84
2022/07/02 12:59:06;;;;;;;5.82;3.92;;;;;;;30.48;30.11;101325.50;10446054;28;20496;-84
2022/07/02 13:04:08;;;;;;;4.22;3.45;;;;;;;30.32;30.43;101323.03;10427068;28;20048;-83
2022/07/02 13:09:11;;;;;;;4.28;3.53;;;;;;;30.23;30.53;101312.09;10448010;28;20417;-84
2022/07/02 13:14:13;;;;;;;5.25;3.33;;;;;;;30.33;30.36;101315.34;10450985;28;20052;-84
2022/07/02 13:19:16;;;;;;;4.03;3.38;;;;;;;30.39;29.31;101299.63;10446505;28;20046;-84
2022/07/02 13:24:18;;;;;;;3.80;3.47;;;;;;;30.56;29.06;101302.47;10447660;28;20045;-84
2022/07/02 13:29:20;;;;;;;3.70;3.03;;;;;;;30.58;29.79;101310.56;10447559;28;20048;-84
2022/07/02 13:34:22;;;;;;;4.10;3.10;;;;;;;30.45;29.98;101307.31;10450790;28;20045;-84
2022/07/02 13:39:24;;;;;;;4.35;2.55;;;;;;;30.24;29.42;101301.59;10446419;28;20555;-84
2022/07/02 13:44:28;;;;;;;6.22;3.22;;;;;;;30.19;29.98;101299.94;10427879;28;20056;-84
2022/07/02 13:49:30;;;;;;;6.40;3.40;;;;;;;30.25;30.14;101300.38;10428148;28;20053;-84
2022/07/02 13:54:32;;;;;;;3.63;3.30;;;;;;;30.41;30.16;101297.19;10445701;28;20048;-84
2022/07/02 13:59:35;;;;;;;6.63;3.53;;;;;;;30.59;29.91;101296.00;10445302;28;20054;-84
2022/07/02 14:04:37;;;;;;;5.68;4.35;;;;;;;30.75;29.16;101298.47;10427786;28;20060;-85
2022/07/02 14:09:39;;;;;;;4.35;3.45;;;;;;;30.87;29.08;101289.56;10442460;28;20034;-84
2022/07/02 14:14:41;;;;;;;3.83;3.40;;;;;;;31.04;29.37;101292.81;10427187;28;20041;-84
2022/07/02 14:19:43;;;;;;;5.38;3.42;;;;;;;31.01;29.66;101290.78;10438368;28;20415;-83
2022/07/02 14:24:46;;;;;;;4.10;3.63;;;;;;;30.78;29.77;101288.34;10486303;28;20132;-83
2022/07/02 14:29:49;;;;;;;4.15;2.97;;;;;;;30.75;30.33;101284.31;10486231;28;20044;-83
2022/07/02 14:34:51;;;;;;;3.70;3.25;;;;;;;30.82;30.01;101281.47;10468461;28;20048;-83
2022/07/02 14:39:53;;;;;;;4.63;3.92;;;;;;;30.79;29.31;101276.63;10468877;28;20060;-83
2022/07/02 14:44:55;;;;;;;5.25;3.30;;;;;;;30.73;29.33;101283.09;10485435;28;20538;-83
2022/07/02 14:49:57;;;;;;;6.00;3.80;;;;;;;30.68;29.08;101269.31;10485907;28;20036;-83
2022/07/02 14:54:59;;;;;;;6.32;3.60;;;;;;;30.67;29.51;101274.16;10485719;28;20404;-83
2022/07/02 15:00:07;;;;;;;4.00;3.25;;;;;;;30.75;28.99;101264.47;10485672;28;20041;-83
2022/07/02 15:05:10;;;;;;;3.63;3.03;;;;;;;30.77;29.52;101262.06;10473346;28;20037;-84
2022/07/02 15:10:12;;;;;;;5.22;3.30;;;;;;;30.90;29.75;101260.44;10430966;28;20045;-84
2022/07/02 15:20:46;;;;;;;3.90;2.90;;;;;;;31.03;29.37;101251.50;10452321;28;20523;-84
2022/07/02 15:25:49;;;;;;;3.30;3.00;;;;;;;31.00;29.57;101249.47;10438005;28;20060;-83
2022/07/02 15:30:53;;;;;;;3.30;2.80;;;;;;;30.97;29.30;101244.63;10452030;28;20059;-83
2022/07/02 15:35:55;;;;;;;4.70;3.35;;;;;;;30.89;29.56;101246.63;10433712;28;20045;-84
2022/07/02 15:40:58;;;;;;;5.07;3.70;;;;;;;30.83;29.13;101237.75;10450961;28;20065;-84
2022/07/02 15:46:01;;;;;;;4.65;3.20;;;;;;;30.79;29.75;101234.13;10433288;28;20050;-84
2022/07/02 15:51:13;;;;;;;4.57;3.17;;;;;;;30.76;29.82;101223.59;10433477;28;20057;-83
2022/07/02 15:56:18;;;;;;;4.30;3.35;;;;;;;30.73;29.92;101232.09;10436531;28;20072;-84
2022/07/02 16:01:21;;;;;;;3.65;2.90;;;;;;;30.66;29.99;101230.06;10431946;28;20053;-84
2022/07/02 16:06:24;;;;;;;6.85;3.88;;;;;;;30.65;30.27;101219.13;10416151;28;20065;-84
2022/07/02 16:11:27;;;;;;;5.25;3.55;;;;;;;30.67;30.01;101226.00;10448651;28;20052;-83
2022/07/02 16:16:30;;;;;;;8.40;3.53;;;;;;;30.65;30.04;101213.47;10432137;28;20045;-84
2022/07/02 16:21:33;;;;;;;5.28;3.20;;;;;;;30.59;29.91;101208.19;10431592;28;20508;-83
2022/07/02 16:26:36;;;;;;;5.55;4.00;;;;;;;30.57;29.98;101198.47;10431960;28;20049;-83
2022/07/02 16:31:49;;;;;;;4.80;3.50;;;;;;;30.47;29.69;101196.44;10449580;28;20057;-84
2022/07/02 16:36:55;;;;;;;4.10;3.38;;;;;;;30.40;30.42;101196.44;10447791;28;20045;-83
2022/07/02 16:41:57;;;;;;;;;;;;;;;30.34;29.90;101198.03;10431534;28;20056;-83
2022/07/02 16:47:02;;;;;;;3.30;2.65;;;;;;;30.29;30.74;101193.59;10448551;28;19967;-83
2022/07/02 16:52:08;;;;;;;6.70;3.58;;;;;;;30.22;31.04;101197.25;10448320;28;20037;-84
2022/07/02 16:57:13;;;;;;;7.15;3.67;;;;;;;30.19;31.13;101195.19;10414734;28;20057;-84
2022/07/02 17:02:21;;;;;;;6.55;4.03;;;;;;;30.16;31.95;101198.03;10430587;28;20045;-83
2022/07/02 17:07:24;;;;;;;5.18;3.55;;;;;;;30.09;31.88;101195.19;10430004;28;20049;-83
2022/07/02 17:12:26;;;;;;;8.13;4.38;;;;;;;30.01;31.75;101197.16;10429216;28;20148;-84
2022/07/02 17:17:28;;;;;;;6.13;3.85;;;;;;;29.96;32.43;101200.38;10447500;28;20051;-84
2022/07/02 17:22:30;;;;;;;5.53;3.85;;;;;;;29.88;32.95;101198.75;10448392;28;20412;-84
2022/07/02 17:27:32;;;;;;;5.00;4.13;;;;;;;29.81;33.77;101210.03;10436290;28;20041;-84
2022/07/02 17:32:35;;;;;;;5.85;4.43;;;;;;;29.74;33.68;101205.16;10428365;28;20037;-84
2022/07/02 17:37:37;;;;;;;7.97;5.15;;;;;;;29.64;34.08;101203.91;10428905;28;20500;-84
2022/07/02 17:42:39;;;;;;;5.22;4.30;;;;;;;29.57;34.57;101197.41;10428599;28;20056;-84
2022/07/02 17:47:41;;;;;;;6.18;4.05;;;;;;;29.49;34.49;101205.03;10446215;28;20419;-84
2022/07/02 17:52:44;;;;;;;6.65;3.97;;;;;;;29.47;34.34;101201.81;10428451;28;20041;-83
2022/07/02 17:57:46;;;;;;;4.13;3.40;;;;;;;29.40;33.75;101201.75;10458428;28;20048;-83
2022/07/02 18:02:48;;;;;;;5.70;3.40;;;;;;;29.30;34.66;101199.66;10468945;28;20136;-83
2022/07/02 18:07:50;;;;;;;5.78;3.72;;;;;;;29.29;34.71;101192.41;10486887;28;20496;-83
2022/07/02 18:12:53;;;;;;;5.90;4.50;;;;;;;29.23;34.20;101185.50;10486848;28;20052;-83
2022/07/02 18:17:55;;;;;;;4.93;4.00;;;;;;;29.17;34.76;101192.75;10469465;28;20055;-83
2022/07/02 18:22:57;;;;;;;6.95;3.88;;;;;;;29.18;34.96;101183.88;10452430;28;20053;-83
2022/07/02 18:27:59;;;;;;;7.47;4.50;;;;;;;29.11;34.95;101178.16;10468461;28;20044;-84
2022/07/02 18:33:01;;;;;;;5.80;3.95;;;;;;;29.03;35.23;101180.16;10468214;28;20037;-84
2022/07/02 18:38:04;;;;;;;5.90;4.03;;;;;;;28.95;35.47;101184.13;10486604;28;20099;-84
2022/07/02 18:43:06;;;;;;;5.53;4.18;;;;;;;28.88;35.65;101172.78;10469382;28;20555;-85
2022/07/02 18:48:08;;;;;;;5.43;3.75;;;;;;;28.81;35.79;101175.50;10474173;28;20053;-83
2022/07/02 18:53:11;;;;;;;5.72;3.80;;;;;;;28.72;36.35;101178.69;10476740;28;20416;-84
2022/07/02 18:58:13;;;;;;;5.93;4.03;;;;;;;28.62;36.84;101173.75;10476232;28;20041;-84
2022/07/02 19:03:16;;;;;;;5.85;3.83;;;;;;;28.55;37.57;101170.91;10476287;28;20043;-84
2022/07/02 19:08:18;;;;;;;7.53;4.22;;;;;;;28.50;37.70;101172.06;10476195;28;20041;-84
2022/07/02 19:13:21;;;;;;;6.30;4.43;;;;;;;28.44;37.93;101167.16;10488554;28;20048;-84
2022/07/02 19:18:23;;;;;;;6.25;4.47;;;;;;;28.34;37.99;101165.88;10480238;28;20037;-84
2022/07/02 19:23:25;;;;;;;10.98;4.30;;;;;;;28.26;37.82;101172.66;10437950;28;20037;-84
2022/07/02 19:33:48;;;;;;;6.20;4.50;;;;;;;28.10;39.36;101172.06;10451590;28;20040;-83
2022/07/02 19:38:51;;;;;;;7.40;4.28;;;;;;;28.04;38.67;101163.13;10451151;28;20041;-83
2022/07/02 19:43:54;;;;;;;6.72;4.45;;;;;;;27.96;39.51;101169.13;10450699;28;20046;-84
2022/07/02 19:48:57;;;;;;;7.40;4.40;;;;;;;27.87;40.22;101167.41;10454468;28;20057;-83
2022/07/02 19:53:59;;;;;;;8.60;4.57;;;;;;;27.83;40.09;101177.03;10466976;28;20033;-83
2022/07/02 19:59:01;;;;;;;6.65;4.28;;;;;;;27.74;40.24;101168.03;10452263;28;20045;-83
2022/07/02 20:04:04;;;;;;;4.97;4.03;;;;;;;27.63;39.66;101167.94;10491232;28;20044;-83
2022/07/02 20:09:06;;;;;;;6.53;4.50;;;;;;;27.56;40.06;101177.06;10485293;28;20551;-83
2022/07/02 20:14:08;;;;;;;6.57;4.25;;;;;;;27.45;40.38;101178.16;10449873;28;20037;-83
2022/07/02 20:19:11;;;;;;;6.13;4.07;;;;;;;27.36;40.73;101186.06;10449716;28;20503;-84
2022/07/02 20:24:13;;;;;;;5.88;4.07;;;;;;;27.27;41.08;101187.19;10432057;28;20419;-84
2022/07/02 20:29:16;;;;;;;6.38;3.55;;;;;;;27.17;41.34;101190.66;10431618;28;20057;-84
2022/07/02 20:34:19;;;;;;;7.85;3.85;;;;;;;27.11;41.31;101186.56;10452964;28;20041;-85
2022/07/02 20:39:21;;;;;;;4.07;3.67;;;;;;;27.07;41.20;101185.66;10450466;28;20041;-84
2022/07/02 20:44:23;;;;;;;5.65;3.85;;;;;;;27.03;41.65;101196.06;10453227;28;20045;-85
2022/07/02 20:49:26;;;;;;;8.25;4.07;;;;;;;26.94;42.69;101199.16;10448770;28;20045;-84
2022/07/02 20:54:28;;;;;;;5.53;3.80;;;;;;;26.84;42.10;101187.72;10448165;28;20049;-84
2022/07/02 20:59:31;;;;;;;5.35;3.45;;;;;;;26.74;42.21;101183.56;10430691;28;20041;-84
2022/07/02 21:04:34;;;;;;;7.07;3.60;;;;;;;26.63;42.84;101186.19;10449500;28;20565;-84
2022/07/02 21:09:36;;;;;;;7.20;3.75;;;;;;;26.54;43.80;101185.63;10487083;28;20049;-84
2022/07/02 21:14:39;;;;;;;5.80;3.28;;;;;;;26.48;44.13;101183.50;10473290;28;20056;-84
2022/07/02 21:19:41;;;;;;;5.60;4.13;;;;;;;26.40;44.06;101174.97;10451572;28;20053;-84
2022/07/02 21:24:44;;;;;;;6.43;3.88;;;;;;;26.35;44.20;101180.88;10433258;28;20044;-84
2022/07/02 21:29:46;;;;;;;5.75;3.72;;;;;;;26.28;44.37;101177.09;10429367;28;20048;-84
2022/07/02 21:34:49;;;;;;;5.28;3.50;;;;;;;26.24;44.59;101177.06;10482640;28;20033;-84
2022/07/02 21:39:54;;;;;;;6.25;4.00;;;;;;;26.20;45.06;101170.53;10455450;28;20526;-84
2022/07/02 21:44:57;;;;;;;6.25;4.28;;;;;;;26.15;43.95;101179.28;10445902;28;20053;-84
2022/07/02 21:49:59;;;;;;;4.32;3.47;;;;;;;26.12;44.25;101185.66;10449813;28;20068;-84
2022/07/02 21:55:01;;;;;;;4.47;3.60;;;;;;;26.05;44.77;101189.16;10446092;28;20053;-84
2022/07/02 22:00:07;;;;;;;5.53;3.60;;;;;;;26.02;44.70;101184.25;10449454;28;20052;-84
2022/07/02 22:05:09;;;;;;;4.68;3.53;;;;;;;25.97;44.89;101178.97;10449689;28;20042;-84
2022/07/02 22:10:11;;;;;;;10.18;3.72;;;;;;;25.90;44.83;101187.25;10445438;28;20049;-84
2022/07/02 22:15:14;;;;;;;4.22;3.13;;;;;;;25.85;44.83;101176.31;10449139;28;20041;-84
2022/07/02 22:20:59;;;;;;;5.32;3.55;;;;;;;25.78;45.58;101176.19;10445165;28;20437;-84
2022/07/02 22:25:42;;;;;;;4.65;3.58;;;;;;;25.69;45.42;101170.78;10441804;28;20049;-83
2022/07/02 22:30:44;;;;;;;6.50;3.70;;;;;;;25.66;46.74;101176.28;10434133;28;20036;-83
2022/07/02 22:35:48;;;;;;;7.78;4.20;;;;;;;25.65;46.27;101171.84;10448683;28;20041;-83
2022/07/02 22:40:51;;;;;;;3.85;3.33;;;;;;;25.60;45.95;101177.78;10444616;28;20046;-83
2022/07/02 22:45:54;;;;;;;5.00;3.63;;;;;;;25.59;46.11;101170.53;10427831;28;20056;-83
2022/07/02 22:50:56;;;;;;;7.10;3.75;;;;;;;25.54;46.93;101172.47;10444808;28;20453;-83
2022/07/02 22:55:58;;;;;;;7.50;5.43;;;;;;;25.49;47.82;101169.13;10444721;28;20049;-83
2022/07/02 23:01:00;;;;;;;7.82;5.63;;;;;;;25.46;47.07;101162.25;10422176;28;20436;-83
2022/07/02 23:06:03;;;;;;;14.23;7.05;;;;;;;25.42;47.14;101158.56;10426442;28;20050;-83
2022/07/02 23:11:05;;;;;;;19.45;8.25;;;;;;;25.37;47.40;101158.88;10444753;28;20037;-83
2022/07/02 23:16:07;;;;;;;15.88;8.65;;;;;;;25.32;47.69;101159.13;10444007;28;20057;-83
2022/07/02 23:21:10;;;;;;;14.77;8.73;;;;;;;25.29;48.44;101159.06;10444051;28;20060;-83
2022/07/02 23:26:12;;;;;;;15.57;8.57;;;;;;;25.25;48.88;101153.38;10442991;28;20038;-83